Time;durP1;ratioP1;P1;durP2;ratioP2;P2;SDS_P1;SDS_P2;PMS_P1;PMS_P2;Temp;Humidity;BMP_temperature;BMP_pressure;BME280_temperature;BME280_humidity;BME280_pressure;Samples;Min_cycle;Max_cycle;Signal;HPM_P1;HPM_P2
2024/01/28 00:00:44;;;;;;;24.48;9.98;;;2.70;99.90;;;;;;5133199;27;20051;-76
2024/01/28 00:03:10;;;;;;;28.90;9.73;;;2.70;99.90;;;;;;5133415;28;20054;-76
2024/01/28 00:05:36;;;;;;;28.77;10.52;;;2.60;99.90;;;;;;5133977;27;20037;-76
2024/01/28 00:08:06;;;;;;;22.65;10.15;;;2.70;99.90;;;;;;5137181;27;20041;-76
2024/01/28 00:10:32;;;;;;;28.50;9.63;;;2.70;99.90;;;;;;5135974;27;20467;-76
2024/01/28 00:12:58;;;;;;;21.65;9.13;;;2.80;99.90;;;;;;5135831;27;20441;-76
2024/01/28 00:15:24;;;;;;;23.23;10.47;;;2.80;99.90;;;;;;5136749;27;20047;-75
2024/01/28 00:17:53;;;;;;;23.83;8.37;;;2.90;99.90;;;;;;5137271;27;20043;-76
2024/01/28 00:20:19;;;;;;;29.40;8.90;;;2.90;99.90;;;;;;5136984;27;20076;-76
2024/01/28 00:22:45;;;;;;;26.57;9.73;;;2.90;99.90;;;;;;5136657;27;20478;-76
2024/01/28 00:25:10;;;;;;;23.37;8.73;;;2.80;99.90;;;;;;5136918;27;20043;-76
2024/01/28 00:27:36;;;;;;;26.63;8.30;;;2.90;99.90;;;;;;5134894;27;20043;-76
2024/01/28 00:30:04;;;;;;;27.20;8.77;;;2.80;99.90;;;;;;5136765;27;20047;-76
2024/01/28 00:32:29;;;;;;;20.13;8.15;;;2.80;99.90;;;;;;5135518;27;20478;-76
2024/01/28 00:34:55;;;;;;;24.67;9.33;;;2.80;99.90;;;;;;5142054;27;20066;-76
2024/01/28 00:37:21;;;;;;;26.67;8.20;;;2.90;99.90;;;;;;5157448;27;20046;-76
2024/01/28 00:39:47;;;;;;;27.43;8.43;;;2.90;99.90;;;;;;5138494;27;20047;-76
2024/01/28 00:42:13;;;;;;;20.73;7.53;;;2.90;99.90;;;;;;5156900;27;20122;-76
2024/01/28 00:44:39;;;;;;;22.77;8.90;;;3.00;99.90;;;;;;5157010;27;20043;-77
2024/01/28 00:47:04;;;;;;;18.60;7.20;;;2.90;99.90;;;;;;5156868;27;20098;-76
2024/01/28 00:49:30;;;;;;;22.13;8.07;;;3.00;99.90;;;;;;5156971;27;20043;-76
2024/01/28 00:51:56;;;;;;;19.83;8.53;;;2.90;99.90;;;;;;5138409;27;20042;-76
2024/01/28 00:54:23;;;;;;;21.48;7.30;;;3.00;99.90;;;;;;5157012;27;20394;-76
2024/01/28 00:56:50;;;;;;;19.42;7.15;;;2.90;99.90;;;;;;5156650;27;20360;-76
2024/01/28 00:59:15;;;;;;;20.33;7.47;;;2.90;99.90;;;;;;5138798;27;20126;-76
2024/01/28 01:01:41;;;;;;;18.17;6.80;;;2.90;99.90;;;;;;5156675;27;20142;-76
2024/01/28 01:04:07;;;;;;;20.20;7.27;;;2.90;99.90;;;;;;5156737;27;20084;-76
2024/01/28 01:06:33;;;;;;;22.97;7.30;;;2.90;99.90;;;;;;5156246;27;20034;-76
2024/01/28 01:08:59;;;;;;;26.77;7.43;;;2.90;99.90;;;;;;5156880;27;20093;-76
2024/01/28 01:11:25;;;;;;;22.85;8.02;;;2.90;99.90;;;;;;5156722;27;20054;-77
2024/01/28 01:13:51;;;;;;;17.60;6.93;;;2.80;99.90;;;;;;5156680;27;20043;-76
2024/01/28 01:16:17;;;;;;;20.45;7.55;;;2.80;99.90;;;;;;5156513;27;20038;-76
2024/01/28 01:18:44;;;;;;;25.60;8.60;;;2.80;99.90;;;;;;5155616;27;20046;-76
2024/01/28 01:21:09;;;;;;;23.60;7.03;;;2.80;99.90;;;;;;5156684;27;20066;-76
2024/01/28 01:23:35;;;;;;;23.00;8.30;;;2.80;99.90;;;;;;5156342;27;20035;-76
2024/01/28 01:26:01;;;;;;;18.70;8.10;;;2.80;99.90;;;;;;5156023;27;20095;-76
2024/01/28 01:28:31;;;;;;;23.60;7.03;;;2.80;99.90;;;;;;5156484;27;20059;-76
2024/01/28 01:31:02;;;;;;;18.77;7.30;;;2.80;99.90;;;;;;5156520;27;20053;-76
2024/01/28 01:33:28;;;;;;;19.98;6.63;;;2.80;99.90;;;;;;5156350;27;20126;-76
2024/01/28 01:35:53;;;;;;;22.07;7.70;;;2.80;99.90;;;;;;5155571;27;20480;-76
2024/01/28 01:38:20;;;;;;;21.27;8.40;;;2.80;99.90;;;;;;5156151;27;20099;-76
2024/01/28 01:40:46;;;;;;;18.85;7.82;;;2.80;99.90;;;;;;5155939;27;20129;-76
2024/01/28 01:43:13;;;;;;;19.10;7.28;;;2.80;99.90;;;;;;5154976;27;20156;-76
2024/01/28 01:45:40;;;;;;;24.30;8.48;;;2.80;99.90;;;;;;5155708;27;20474;-76
2024/01/28 01:48:11;;;;;;;17.33;7.82;;;2.90;99.90;;;;;;5155923;27;20047;-76
2024/01/28 01:50:39;;;;;;;20.83;8.35;;;2.90;99.90;;;;;;5155707;27;20042;-76
2024/01/28 01:53:05;;;;;;;19.38;8.18;;;2.90;99.90;;;;;;5137518;27;20419;-76
2024/01/28 01:55:36;;;;;;;20.92;7.65;;;2.90;99.90;;;;;;5137440;27;20047;-76
2024/01/28 01:58:03;;;;;;;18.48;7.45;;;2.90;99.90;;;;;;5155828;27;20499;-76
2024/01/28 02:00:30;;;;;;;20.05;7.18;;;2.90;99.90;;;;;;5155454;27;20042;-76
2024/01/28 02:02:56;;;;;;;20.35;7.88;;;2.90;99.90;;;;;;5155478;27;20506;-76
2024/01/28 02:05:22;;;;;;;19.83;8.27;;;2.90;99.90;;;;;;5155737;27;20130;-76
2024/01/28 02:07:48;;;;;;;18.47;7.17;;;2.90;99.90;;;;;;5155365;27;20047;-76
2024/01/28 02:10:14;;;;;;;17.50;8.13;;;2.90;99.90;;;;;;5155503;27;20047;-76
2024/01/28 02:12:43;;;;;;;18.65;7.65;;;2.90;99.90;;;;;;5155238;27;20062;-76
2024/01/28 02:15:10;;;;;;;15.75;7.45;;;2.90;99.90;;;;;;5155409;27;20047;-76
2024/01/28 02:17:36;;;;;;;22.77;7.88;;;2.90;99.90;;;;;;5136729;27;20172;-75
2024/01/28 02:20:03;;;;;;;19.65;8.13;;;2.90;99.90;;;;;;5136746;27;20061;-76
2024/01/28 02:22:29;;;;;;;18.15;7.90;;;2.90;99.90;;;;;;5155060;27;20063;-76
2024/01/28 02:24:55;;;;;;;17.98;7.68;;;2.90;99.90;;;;;;5155086;27;20046;-76
2024/01/28 02:27:21;;;;;;;23.67;8.32;;;3.00;99.90;;;;;;5155177;27;20050;-76
2024/01/28 02:29:46;;;;;;;17.13;8.60;;;2.90;99.90;;;;;;5154013;27;20046;-76
2024/01/28 02:32:18;;;;;;;24.37;9.20;;;2.90;99.90;;;;;;5155141;27;20394;-77
2024/01/28 02:34:44;;;;;;;21.60;8.85;;;2.90;99.90;;;;;;5154820;27;20046;-76
2024/01/28 02:37:10;;;;;;;20.63;8.20;;;2.90;99.90;;;;;;5154972;27;20049;-76
2024/01/28 02:39:39;;;;;;;27.15;9.15;;;2.90;99.90;;;;;;5155085;27;20057;-76
2024/01/28 02:42:06;;;;;;;22.75;8.82;;;2.90;99.90;;;;;;5154594;27;20490;-76
2024/01/28 02:44:32;;;;;;;21.83;8.98;;;2.90;99.90;;;;;;5136457;27;20046;-76
2024/01/28 02:46:57;;;;;;;21.83;8.10;;;2.90;99.90;;;;;;5154676;27;20042;-76
2024/01/28 02:49:24;;;;;;;17.33;8.50;;;2.90;99.90;;;;;;5154788;27;20046;-76
2024/01/28 02:51:53;;;;;;;21.73;7.63;;;2.90;99.90;;;;;;5154603;27;20091;-76
2024/01/28 02:54:19;;;;;;;20.90;8.70;;;3.00;99.90;;;;;;5154840;27;20488;-76
2024/01/28 02:56:45;;;;;;;22.95;9.05;;;3.00;99.90;;;;;;5154516;27;20043;-76
2024/01/28 02:59:11;;;;;;;23.77;8.93;;;2.90;99.90;;;;;;5154766;27;20098;-76
2024/01/28 03:01:47;;;;;;;23.10;8.23;;;3.00;99.90;;;;;;5154682;27;20162;-76
2024/01/28 03:04:15;;;;;;;20.70;8.38;;;3.00;99.90;;;;;;5154689;27;20109;-77
2024/01/28 03:06:42;;;;;;;21.67;8.18;;;3.00;99.90;;;;;;5153884;27;20129;-76
2024/01/28 03:09:08;;;;;;;19.88;7.68;;;3.10;99.90;;;;;;5154312;27;20505;-76
2024/01/28 03:11:35;;;;;;;17.38;7.95;;;3.00;99.90;;;;;;5154571;27;20046;-76
2024/01/28 03:14:01;;;;;;;20.45;8.25;;;3.00;99.90;;;;;;5154432;27;20227;-76
2024/01/28 03:16:27;;;;;;;22.60;8.43;;;3.10;99.90;;;;;;5154484;27;20039;-77
2024/01/28 03:18:53;;;;;;;24.10;8.80;;;3.00;99.90;;;;;;5154350;27;20042;-76
2024/01/28 03:21:19;;;;;;;24.73;8.87;;;3.00;99.90;;;;;;5119413;27;20042;-76
2024/01/28 03:23:46;;;;;;;28.23;8.75;;;3.00;99.90;;;;;;5154309;27;20122;-76
2024/01/28 03:26:12;;;;;;;21.15;9.52;;;3.00;99.90;;;;;;5154498;27;20043;-76
2024/01/28 03:28:37;;;;;;;23.80;8.73;;;3.00;99.90;;;;;;5154339;27;20042;-76
2024/01/28 03:31:03;;;;;;;22.30;9.23;;;2.90;99.90;;;;;;5135994;27;20496;-76
2024/01/28 03:33:29;;;;;;;19.63;8.97;;;2.90;99.90;;;;;;5154528;27;20099;-76
2024/01/28 03:35:56;;;;;;;21.47;9.57;;;2.90;99.90;;;;;;5153701;27;20401;-76
2024/01/28 03:38:22;;;;;;;24.48;9.00;;;2.90;99.90;;;;;;5154627;27;20050;-76
2024/01/28 03:40:47;;;;;;;23.25;9.30;;;2.90;99.90;;;;;;5136898;27;20061;-76
2024/01/28 03:43:13;;;;;;;29.77;10.30;;;2.90;99.90;;;;;;5158407;27;20046;-76
2024/01/28 03:45:39;;;;;;;21.03;9.43;;;2.90;99.90;;;;;;5157616;27;20034;-76
2024/01/28 03:48:05;;;;;;;21.20;9.20;;;2.80;99.90;;;;;;5158101;27;20049;-76
2024/01/28 03:50:31;;;;;;;24.80;10.30;;;2.80;99.90;;;;;;5140217;27;20043;-76
2024/01/28 03:52:56;;;;;;;26.40;9.77;;;2.80;99.90;;;;;;5139467;27;20042;-76
2024/01/28 03:55:22;;;;;;;24.53;10.03;;;2.80;99.90;;;;;;5157842;27;20129;-76
2024/01/28 03:57:48;;;;;;;17.90;9.20;;;2.70;99.90;;;;;;5139396;27;20046;-76
2024/01/28 04:00:14;;;;;;;22.43;11.30;;;2.70;99.90;;;;;;5158120;27;20046;-76
2024/01/28 04:02:41;;;;;;;28.42;9.35;;;2.70;99.90;;;;;;5158075;27;20082;-76
2024/01/28 04:05:07;;;;;;;24.30;9.63;;;2.70;99.90;;;;;;5157848;27;20043;-76
2024/01/28 04:07:33;;;;;;;26.27;11.13;;;2.60;99.90;;;;;;5139569;27;20146;-76
2024/01/28 04:09:58;;;;;;;23.80;10.47;;;2.60;99.90;;;;;;5157692;27;20129;-76
2024/01/28 04:12:24;;;;;;;17.07;8.93;;;2.60;99.90;;;;;;5157945;27;20051;-76
2024/01/28 04:14:50;;;;;;;20.50;10.10;;;2.60;99.90;;;;;;5157379;27;20039;-76
2024/01/28 04:17:16;;;;;;;22.03;9.47;;;2.60;99.90;;;;;;5157818;27;20038;-76
2024/01/28 04:19:42;;;;;;;22.23;10.60;;;2.60;99.90;;;;;;5157713;27;20065;-76
2024/01/28 04:22:10;;;;;;;21.23;9.33;;;2.60;99.90;;;;;;5157436;27;20050;-76
2024/01/28 04:24:36;;;;;;;24.27;10.00;;;2.50;99.90;;;;;;5157595;27;20055;-76
2024/01/28 04:27:03;;;;;;;25.70;10.00;;;2.50;99.90;;;;;;5157512;27;20061;-76
2024/01/28 04:29:29;;;;;;;21.55;9.57;;;2.40;99.90;;;;;;5157514;27;20085;-76
2024/01/28 04:31:55;;;;;;;21.10;9.77;;;2.40;99.90;;;;;;5157321;27;20074;-75
2024/01/28 04:34:24;;;;;;;23.43;10.37;;;2.40;99.90;;;;;;5157196;27;20050;-76
2024/01/28 04:36:50;;;;;;;26.25;10.30;;;2.40;99.90;;;;;;5157223;27;20126;-75
2024/01/28 04:39:16;;;;;;;24.80;10.10;;;2.40;99.90;;;;;;5157453;27;20504;-76
2024/01/28 04:41:41;;;;;;;19.50;9.43;;;2.30;99.90;;;;;;5157319;27;20518;-76
2024/01/28 04:44:08;;;;;;;21.93;10.17;;;2.30;99.90;;;;;;5156004;27;20047;-77
2024/01/28 04:46:33;;;;;;;24.70;10.18;;;2.30;99.90;;;;;;5156773;27;20384;-76
2024/01/28 04:49:03;;;;;;;26.93;10.73;;;2.30;99.90;;;;;;5156942;27;20049;-76
2024/01/28 04:51:30;;;;;;;21.30;9.90;;;2.30;99.90;;;;;;5138630;27;20546;-76
2024/01/28 04:53:57;;;;;;;18.85;10.13;;;2.30;99.90;;;;;;5155973;27;20081;-76
2024/01/28 04:56:23;;;;;;;23.77;9.85;;;2.20;99.90;;;;;;5156948;27;20042;-76
2024/01/28 04:58:49;;;;;;;25.97;10.13;;;2.20;99.90;;;;;;5155314;27;20415;-76
2024/01/28 05:01:14;;;;;;;21.73;10.93;;;2.20;99.90;;;;;;5156705;27;20046;-76
2024/01/28 05:03:40;;;;;;;19.40;10.57;;;2.20;99.90;;;;;;5157165;27;20042;-76
2024/01/28 05:06:07;;;;;;;22.87;11.30;;;2.10;99.90;;;;;;5156613;27;20185;-76
2024/01/28 05:08:33;;;;;;;21.15;9.95;;;2.20;99.90;;;;;;5156782;27;20042;-76
2024/01/28 05:10:58;;;;;;;29.57;11.40;;;2.10;99.90;;;;;;5156521;27;20475;-76
2024/01/28 05:13:24;;;;;;;20.60;10.63;;;2.10;99.90;;;;;;5156638;27;20047;-76
2024/01/28 05:15:50;;;;;;;24.07;10.57;;;2.10;99.90;;;;;;5138357;27;20490;-76
2024/01/28 05:18:16;;;;;;;17.83;10.17;;;2.10;99.90;;;;;;5156341;27;20078;-76
2024/01/28 05:20:43;;;;;;;25.08;11.07;;;2.10;99.90;;;;;;5156659;27;20049;-76
2024/01/28 05:23:09;;;;;;;23.27;9.77;;;2.10;99.90;;;;;;5156558;27;20050;-76
2024/01/28 05:25:35;;;;;;;20.48;10.23;;;2.10;99.90;;;;;;5138409;27;20134;-76
2024/01/28 05:28:02;;;;;;;26.50;9.57;;;2.00;99.90;;;;;;5156291;27;20125;-76
2024/01/28 05:30:29;;;;;;;22.08;10.73;;;2.00;99.90;;;;;;5137827;27;20042;-76
2024/01/28 05:32:55;;;;;;;22.10;10.55;;;2.00;99.90;;;;;;5156265;27;20446;-73
2024/01/28 05:35:21;;;;;;;20.97;10.67;;;1.90;99.90;;;;;;5156274;27;20138;-76
2024/01/28 05:37:47;;;;;;;20.43;10.53;;;1.90;99.90;;;;;;5156079;27;20398;-76
2024/01/28 05:40:12;;;;;;;24.33;11.77;;;2.00;99.90;;;;;;5155972;27;20276;-76
2024/01/28 05:42:38;;;;;;;24.60;10.63;;;1.90;99.90;;;;;;5156159;27;20190;-76
2024/01/28 05:45:04;;;;;;;21.43;10.00;;;2.00;99.90;;;;;;5155821;27;20540;-76
2024/01/28 05:47:30;;;;;;;23.63;11.10;;;2.00;99.90;;;;;;5155850;27;20043;-76
2024/01/28 05:49:55;;;;;;;21.83;10.50;;;2.00;99.90;;;;;;5155967;27;20282;-76
2024/01/28 05:52:23;;;;;;;26.27;11.13;;;2.00;99.90;;;;;;5155708;27;20493;-77
2024/01/28 05:54:49;;;;;;;23.83;10.20;;;1.90;99.90;;;;;;5155832;27;20498;-77
2024/01/28 05:57:14;;;;;;;25.48;12.32;;;2.00;99.90;;;;;;5155618;27;20042;-76
2024/01/28 05:59:40;;;;;;;27.77;11.67;;;1.90;99.90;;;;;;5155702;27;20050;-76
2024/01/28 06:02:06;;;;;;;22.20;10.53;;;1.90;99.90;;;;;;5155548;27;20067;-75
2024/01/28 06:04:31;;;;;;;23.37;11.00;;;1.90;99.90;;;;;;5154975;27;20042;-76
2024/01/28 06:06:59;;;;;;;23.40;10.50;;;1.80;99.90;;;;;;5155613;27;20539;-76
2024/01/28 06:09:25;;;;;;;20.88;10.70;;;1.80;99.90;;;;;;5155531;27;20043;-76
2024/01/28 06:11:51;;;;;;;19.27;10.52;;;1.90;99.90;;;;;;5137202;27;20088;-76
2024/01/28 06:14:17;;;;;;;19.50;10.10;;;1.80;99.90;;;;;;5155266;27;20070;-76
2024/01/28 06:16:43;;;;;;;19.43;9.93;;;1.80;99.90;;;;;;5155321;27;20129;-76
2024/01/28 06:19:08;;;;;;;21.60;10.83;;;1.70;99.90;;;;;;5155248;27;20050;-76
2024/01/28 06:21:34;;;;;;;23.63;11.47;;;1.80;99.90;;;;;;5155125;27;20051;-76
2024/01/28 06:24:00;;;;;;;24.90;10.30;;;1.70;99.90;;;;;;5155392;27;20147;-76
2024/01/28 06:26:25;;;;;;;25.33;10.60;;;1.70;99.90;;;;;;5155309;27;20058;-76
2024/01/28 06:28:51;;;;;;;24.53;10.33;;;1.70;99.90;;;;;;5154448;27;20047;-76
2024/01/28 06:31:18;;;;;;;19.43;10.67;;;1.70;99.90;;;;;;5136483;27;20039;-76
2024/01/28 06:33:44;;;;;;;21.67;10.48;;;1.60;99.90;;;;;;5154803;27;20156;-76
2024/01/28 06:36:19;;;;;;;18.50;9.30;;;1.60;99.90;;;;;;5136178;27;20054;-76
2024/01/28 06:38:44;;;;;;;26.90;11.13;;;1.60;99.90;;;;;;5155079;27;20050;-76
2024/01/28 06:41:10;;;;;;;19.17;9.83;;;1.60;99.90;;;;;;5154633;27;20046;-76
2024/01/28 06:43:36;;;;;;;23.30;10.80;;;1.60;99.90;;;;;;5136302;27;20647;-76
2024/01/28 06:46:01;;;;;;;28.50;11.00;;;1.60;99.90;;;;;;5154866;27;20466;-76
2024/01/28 06:48:27;;;;;;;20.97;10.50;;;1.50;99.90;;;;;;5154298;27;20042;-76
2024/01/28 06:50:53;;;;;;;21.73;10.40;;;1.50;99.90;;;;;;5136850;27;20065;-76
2024/01/28 06:53:18;;;;;;;21.13;10.97;;;1.50;99.90;;;;;;5154621;27;20141;-76
2024/01/28 06:55:44;;;;;;;21.23;9.40;;;1.60;99.90;;;;;;5154793;27;20091;-76
2024/01/28 06:58:10;;;;;;;28.97;10.93;;;1.50;99.90;;;;;;5153964;27;20404;-76
2024/01/28 07:00:35;;;;;;;28.43;10.37;;;1.50;99.90;;;;;;5155038;27;20125;-76
2024/01/28 07:03:01;;;;;;;26.10;10.57;;;1.50;99.90;;;;;;5154711;27;20474;-76
2024/01/28 07:05:28;;;;;;;20.80;11.37;;;1.50;99.90;;;;;;5102096;27;20051;-76
2024/01/28 07:07:54;;;;;;;20.88;9.68;;;1.50;99.90;;;;;;5154593;27;20387;-76
2024/01/28 07:10:19;;;;;;;23.00;10.60;;;1.50;99.90;;;;;;5154415;27;20053;-76
2024/01/28 07:12:45;;;;;;;21.73;11.40;;;1.50;99.90;;;;;;5118960;27;20542;-76
2024/01/28 07:15:11;;;;;;;20.50;10.17;;;1.40;99.90;;;;;;5154051;27;20058;-76
2024/01/28 07:17:36;;;;;;;18.73;9.97;;;1.40;99.90;;;;;;5158573;27;20171;-76
2024/01/28 07:20:02;;;;;;;22.03;10.43;;;1.40;99.90;;;;;;5158880;27;20047;-76
2024/01/28 07:22:28;;;;;;;21.13;10.80;;;1.40;99.90;;;;;;5158725;27;20047;-76
2024/01/28 07:24:54;;;;;;;22.13;10.77;;;1.40;99.90;;;;;;5159003;27;20053;-76
2024/01/28 07:27:19;;;;;;;23.60;9.77;;;1.40;99.90;;;;;;5158602;27;20069;-76
2024/01/28 07:29:45;;;;;;;23.73;11.50;;;1.40;99.90;;;;;;5158419;27;20098;-76
2024/01/28 07:32:13;;;;;;;25.00;10.70;;;1.30;99.90;;;;;;5158534;27;20069;-75
2024/01/28 07:34:42;;;;;;;17.58;9.63;;;1.40;99.90;;;;;;5139748;27;20061;-76
2024/01/28 07:37:08;;;;;;;22.58;10.93;;;1.40;99.90;;;;;;5158598;27;20316;-76
2024/01/28 07:39:34;;;;;;;29.15;12.00;;;1.50;99.90;;;;;;5158348;27;20050;-76
2024/01/28 07:42:00;;;;;;;20.50;9.80;;;1.40;99.90;;;;;;5139333;27;20142;-76
2024/01/28 07:44:26;;;;;;;24.47;11.83;;;1.50;99.90;;;;;;5158171;27;20091;-76
2024/01/28 07:46:52;;;;;;;18.27;9.77;;;1.50;99.90;;;;;;5158050;27;20431;-76
2024/01/28 07:49:21;;;;;;;21.50;10.48;;;1.40;99.90;;;;;;5158134;27;20050;-76
2024/01/28 07:51:47;;;;;;;21.58;9.45;;;1.40;99.90;;;;;;5139811;27;20046;-76
2024/01/28 07:54:12;;;;;;;21.80;10.10;;;1.40;99.90;;;;;;5139711;27;20574;-75
2024/01/28 07:56:38;;;;;;;21.87;9.13;;;1.40;99.90;;;;;;5158038;27;20122;-76
2024/01/28 07:59:04;;;;;;;19.50;9.60;;;1.40;99.90;;;;;;5157982;27;20077;-76
2024/01/28 08:01:30;;;;;;;20.87;9.17;;;1.40;99.90;;;;;;5157853;27;20042;-76
2024/01/28 08:03:59;;;;;;;21.88;10.10;;;1.40;99.90;;;;;;5158083;27;20441;-76
2024/01/28 08:06:25;;;;;;;18.45;9.43;;;1.50;99.90;;;;;;5157795;27;20046;-75
2024/01/28 08:08:52;;;;;;;19.43;8.90;;;1.50;99.90;;;;;;5158144;27;20043;-76
2024/01/28 08:11:18;;;;;;;19.20;8.98;;;1.50;99.90;;;;;;5157736;27;20078;-75
2024/01/28 08:13:45;;;;;;;19.57;8.70;;;1.50;99.90;;;;;;5157864;27;20158;-76
2024/01/28 08:16:10;;;;;;;19.50;8.30;;;1.60;99.90;;;;;;5157776;27;20054;-76
2024/01/28 08:18:37;;;;;;;21.43;8.63;;;1.60;99.90;;;;;;5157544;27;20039;-76
2024/01/28 08:21:03;;;;;;;18.50;9.15;;;1.60;99.90;;;;;;5157709;27;20073;-76
2024/01/28 08:23:29;;;;;;;18.07;8.47;;;1.70;99.90;;;;;;5157478;27;20039;-76
2024/01/28 08:25:55;;;;;;;16.53;8.57;;;1.70;99.90;;;;;;5122251;27;20482;-76
2024/01/28 08:28:21;;;;;;;17.48;7.60;;;1.80;99.90;;;;;;5157290;27;20038;-75
2024/01/28 08:30:47;;;;;;;15.77;8.10;;;1.80;99.90;;;;;;5157519;27;20046;-76
2024/01/28 08:33:13;;;;;;;18.33;6.90;;;1.80;99.90;;;;;;5157605;27;20046;-76
2024/01/28 08:35:39;;;;;;;17.37;7.63;;;1.80;99.90;;;;;;5157328;27;20394;-76
2024/01/28 08:38:05;;;;;;;19.90;7.50;;;1.90;99.90;;;;;;5157583;27;20047;-76
2024/01/28 08:40:31;;;;;;;17.27;7.23;;;1.90;99.90;;;;;;5157102;27;20038;-76
2024/01/28 08:42:57;;;;;;;17.30;6.93;;;2.00;99.90;;;;;;5139080;27;20360;-76
2024/01/28 08:45:23;;;;;;;14.20;7.33;;;2.00;99.90;;;;;;5157019;27;20053;-76
2024/01/28 08:47:49;;;;;;;15.75;6.88;;;2.10;99.90;;;;;;5157234;27;20126;-76
2024/01/28 08:50:15;;;;;;;18.80;7.72;;;2.10;99.90;;;;;;5157103;27;20482;-76
2024/01/28 08:52:42;;;;;;;19.33;7.82;;;2.10;99.90;;;;;;5156486;27;20068;-77
2024/01/28 08:55:08;;;;;;;22.95;7.63;;;2.30;99.90;;;;;;5156757;27;20529;-76
2024/01/28 08:57:34;;;;;;;16.00;7.45;;;2.30;99.90;;;;;;5156740;27;20043;-76
2024/01/28 09:00:00;;;;;;;22.98;8.10;;;2.40;99.90;;;;;;5157199;27;20057;-76
2024/01/28 09:02:26;;;;;;;19.02;6.95;;;2.50;99.90;;;;;;5138491;27;20180;-76
2024/01/28 09:04:52;;;;;;;19.23;7.07;;;2.60;99.90;;;;;;5157107;27;20122;-76
2024/01/28 09:07:18;;;;;;;17.60;7.00;;;2.70;99.90;;;;;;5138629;27;20138;-76
2024/01/28 09:09:43;;;;;;;23.03;7.87;;;2.80;99.90;;;;;;5156563;27;20078;-76
2024/01/28 09:12:09;;;;;;;20.57;7.00;;;2.90;99.90;;;;;;5156782;27;20074;-76
2024/01/28 09:14:36;;;;;;;14.68;6.55;;;3.00;99.90;;;;;;5156520;27;20105;-76
2024/01/28 09:17:02;;;;;;;18.75;6.57;;;3.10;99.90;;;;;;5156857;27;20042;-77
2024/01/28 09:19:28;;;;;;;18.15;6.13;;;3.20;99.90;;;;;;5156369;27;20049;-77
2024/01/28 09:21:54;;;;;;;17.33;6.90;;;3.30;99.90;;;;;;5156739;27;20046;-76
2024/01/28 09:24:20;;;;;;;15.18;5.97;;;3.50;99.90;;;;;;5156530;27;20084;-77
2024/01/28 09:26:46;;;;;;;13.83;5.70;;;3.60;99.90;;;;;;5156287;27;20139;-76
2024/01/28 09:29:12;;;;;;;13.40;5.97;;;3.70;99.90;;;;;;5156462;27;20039;-77
2024/01/28 09:31:38;;;;;;;12.88;5.95;;;3.80;99.90;;;;;;5156124;27;20050;-76
2024/01/28 09:34:04;;;;;;;12.90;5.63;;;3.90;99.90;;;;;;5156428;27;20042;-77
2024/01/28 09:36:30;;;;;;;14.30;5.75;;;4.00;99.90;;;;;;5137156;27;20042;-76
2024/01/28 09:38:55;;;;;;;15.90;6.57;;;4.10;99.90;;;;;;5155980;27;20051;-77
2024/01/28 09:41:48;;;;;;;14.13;5.00;;;4.20;99.90;;;;;;5156173;27;20043;-77
2024/01/28 09:44:14;;;;;;;14.35;5.57;;;4.20;99.90;;;;;;5156316;27;20045;-76
2024/01/28 09:46:41;;;;;;;11.85;5.10;;;4.30;99.90;;;;;;5155525;27;20496;-76
2024/01/28 09:49:11;;;;;;;14.05;5.47;;;4.30;99.90;;;;;;5155973;27;20505;-77
2024/01/28 09:51:40;;;;;;;14.15;5.88;;;4.30;99.90;;;;;;5155741;27;20046;-76
2024/01/28 09:54:08;;;;;;;12.93;5.50;;;4.30;99.90;;;;;;5156128;27;20068;-77
2024/01/28 09:56:35;;;;;;;13.20;5.45;;;4.20;99.90;;;;;;5155638;27;20223;-76
2024/01/28 09:59:01;;;;;;;13.65;4.60;;;4.30;99.90;;;;;;5155856;27;20159;-76
2024/01/28 10:01:29;;;;;;;14.60;5.70;;;4.30;99.90;;;;;;5137276;27;20081;-76
2024/01/28 10:03:56;;;;;;;14.07;5.45;;;4.30;99.90;;;;;;5155713;27;20486;-76
2024/01/28 10:06:22;;;;;;;18.27;5.53;;;4.30;99.90;;;;;;5155852;27;20089;-77
2024/01/28 10:08:48;;;;;;;12.77;4.83;;;4.30;99.90;;;;;;5155528;27;20082;-77
2024/01/28 10:11:15;;;;;;;16.77;5.90;;;4.30;99.90;;;;;;5137247;27;20102;-77
2024/01/28 10:13:41;;;;;;;15.07;5.88;;;4.30;99.90;;;;;;5155334;27;20081;-76
2024/01/28 10:16:07;;;;;;;12.20;4.93;;;4.40;99.90;;;;;;5155460;27;20038;-76
2024/01/28 10:18:32;;;;;;;12.60;5.05;;;4.30;99.90;;;;;;5155227;27;20799;-77
2024/01/28 10:20:58;;;;;;;12.60;5.13;;;4.40;99.90;;;;;;5155374;27;20134;-77
2024/01/28 10:23:24;;;;;;;13.30;5.20;;;4.40;99.90;;;;;;5155307;27;20125;-77
2024/01/28 10:25:50;;;;;;;14.13;5.70;;;4.40;99.90;;;;;;5136808;27;20054;-76
2024/01/28 10:28:19;;;;;;;12.53;5.20;;;4.50;99.90;;;;;;5119663;27;20046;-77
2024/01/28 10:30:49;;;;;;;13.55;5.07;;;4.60;99.90;;;;;;5154998;27;20043;-77
2024/01/28 10:33:15;;;;;;;11.90;5.05;;;4.60;99.90;;;;;;5155338;27;20065;-77
2024/01/28 10:35:40;;;;;;;10.43;5.03;;;4.60;99.90;;;;;;5154791;27;20390;-76
2024/01/28 10:38:12;;;;;;;15.00;6.20;;;4.60;99.90;;;;;;5155072;27;20047;-77
2024/01/28 10:40:43;;;;;;;15.13;5.75;;;4.60;99.90;;;;;;5154627;27;20501;-76
2024/01/28 10:43:12;;;;;;;15.85;5.45;;;4.70;99.90;;;;;;5155093;27;20042;-76
2024/01/28 10:45:44;;;;;;;13.60;5.97;;;4.70;99.90;;;;;;5154932;27;20051;-76
2024/01/28 10:48:16;;;;;;;13.20;5.32;;;4.70;99.90;;;;;;5155299;27;20044;-77
2024/01/28 10:50:42;;;;;;;14.35;5.78;;;4.80;99.90;;;;;;5154017;27;20457;-76
2024/01/28 10:53:09;;;;;;;12.37;5.10;;;4.80;99.90;;;;;;5154885;27;20078;-76
2024/01/28 10:55:35;;;;;;;11.52;5.53;;;4.90;99.90;;;;;;5154662;27;20049;-76
2024/01/28 10:58:03;;;;;;;11.88;5.30;;;5.00;99.90;;;;;;5154823;27;20038;-76
2024/01/28 11:00:30;;;;;;;12.73;5.78;;;4.90;99.90;;;;;;5154908;27;20381;-77
2024/01/28 11:02:58;;;;;;;15.30;6.65;;;5.00;99.90;;;;;;5154587;27;20099;-76
2024/01/28 11:05:25;;;;;;;14.90;6.13;;;5.00;99.90;;;;;;5154843;27;20042;-77
2024/01/28 11:07:54;;;;;;;16.25;6.78;;;5.00;99.90;;;;;;5154251;27;20387;-76
2024/01/28 11:10:21;;;;;;;11.75;5.13;;;5.00;99.90;;;;;;5154396;27;20047;-77
2024/01/28 11:12:48;;;;;;;17.35;6.28;;;5.10;99.90;;;;;;5154482;27;20122;-76
2024/01/28 11:15:14;;;;;;;13.18;5.05;;;5.10;99.90;;;;;;5136370;27;20406;-77
2024/01/28 11:17:40;;;;;;;13.97;5.23;;;5.20;99.90;;;;;;5154021;27;20072;-76
2024/01/28 11:20:07;;;;;;;13.23;5.22;;;5.20;99.90;;;;;;5154264;27;20482;-76
2024/01/28 11:22:52;;;;;;;12.98;5.28;;;5.20;99.90;;;;;;5154546;27;20043;-77
2024/01/28 11:25:25;;;;;;;15.05;5.45;;;5.30;99.90;;;;;;5154817;27;20046;-76
2024/01/28 11:27:57;;;;;;;11.95;4.95;;;5.40;99.90;;;;;;5154348;27;20047;-77
2024/01/28 11:30:23;;;;;;;11.57;4.90;;;5.40;99.90;;;;;;5154619;27;20060;-76
2024/01/28 11:32:52;;;;;;;13.13;5.10;;;5.40;99.90;;;;;;5153977;27;20042;-76
2024/01/28 11:35:18;;;;;;;16.15;4.43;;;5.40;99.90;;;;;;5154427;27;20299;-76
2024/01/28 11:37:51;;;;;;;10.40;4.22;;;5.40;99.90;;;;;;5153815;27;20494;-76
2024/01/28 11:40:38;;;;;;;11.95;4.80;;;5.40;99.90;;;;;;5154474;27;20099;-76
2024/01/28 11:43:08;;;;;;;8.25;4.43;;;5.60;99.90;;;;;;5154411;27;20513;-76
2024/01/28 11:45:37;;;;;;;13.45;4.57;;;5.70;99.90;;;;;;5154558;27;20490;-77
2024/01/28 11:48:10;;;;;;;14.48;4.72;;;5.70;99.90;;;;;;5154565;27;20049;-77
2024/01/28 11:50:36;;;;;;;12.45;5.15;;;5.70;99.90;;;;;;5154543;27;20153;-77
2024/01/28 11:53:05;;;;;;;11.20;4.07;;;5.80;99.90;;;;;;5154092;27;20046;-76
2024/01/28 11:55:31;;;;;;;11.30;4.35;;;5.80;99.90;;;;;;5154262;27;20053;-76
2024/01/28 11:57:56;;;;;;;9.00;4.27;;;5.90;99.90;;;;;;5153916;27;20125;-76
2024/01/28 12:00:25;;;;;;;15.30;5.17;;;5.90;99.90;;;;;;5154334;27;20306;-77
2024/01/28 12:02:51;;;;;;;10.85;4.40;;;5.90;99.90;;;;;;5156889;27;20439;-76
2024/01/28 12:05:17;;;;;;;11.27;4.27;;;6.00;99.90;;;;;;5158211;27;20054;-77
2024/01/28 12:07:46;;;;;;;9.73;3.80;;;5.90;99.90;;;;;;5157859;27;20091;-77
2024/01/28 12:10:12;;;;;;;9.80;3.67;;;5.90;99.90;;;;;;5139679;27;20494;-76
2024/01/28 12:12:42;;;;;;;12.13;4.10;;;5.90;99.90;;;;;;5158004;27;20486;-77
2024/01/28 12:15:09;;;;;;;10.23;4.30;;;6.00;99.90;;;;;;5139638;27;20058;-77
2024/01/28 12:17:35;;;;;;;9.80;4.15;;;6.00;99.90;;;;;;5157750;27;20062;-76
2024/01/28 12:20:03;;;;;;;11.93;4.40;;;6.00;99.90;;;;;;5157271;27;20050;-77
2024/01/28 12:22:38;;;;;;;10.52;3.85;;;6.10;99.90;;;;;;5157907;27;20403;-77
2024/01/28 12:25:10;;;;;;;12.25;4.25;;;6.10;99.90;;;;;;5157560;27;20051;-76
2024/01/28 12:27:40;;;;;;;11.63;4.15;;;6.20;99.90;;;;;;5139178;27;20042;-76
2024/01/28 12:30:09;;;;;;;10.02;3.75;;;6.20;99.90;;;;;;5157424;27;20069;-76
2024/01/28 12:32:38;;;;;;;8.88;3.55;;;6.30;99.90;;;;;;5157553;27;20359;-76
2024/01/28 12:35:09;;;;;;;7.63;3.47;;;6.30;99.90;;;;;;5157221;27;20406;-76
2024/01/28 12:37:39;;;;;;;10.93;3.70;;;6.40;99.90;;;;;;5157440;27;20038;-76
2024/01/28 12:40:09;;;;;;;9.25;3.95;;;6.40;99.90;;;;;;5157199;27;20042;-76
2024/01/28 12:42:38;;;;;;;8.80;3.55;;;6.40;99.90;;;;;;5157423;27;20078;-77